Time,TemperatureF,DewpointF,PressureIn,WindDirection,WindDirectionDegrees,WindSpeedMPH,WindSpeedGustMPH,Humidity,HourlyPrecipIn,Conditions,Clouds,dailyrainin,SoftwareType,DateUTC
2013-02-06 00:01:00,42.8,38.3,29.71,NNE,29,0.0,0.0,84,0.00,,---,0.00,VWS V14.01,2013-02-06 08:01:00,
2013-02-06 00:07:00,42.8,38.3,29.74,NNE,30,0.0,0.0,84,0.04,,---,0.04,VWS V14.01,2013-02-06 08:07:00,
2013-02-06 00:13:00,42.8,38.3,29.74,NNE,29,0.0,0.0,84,0.04,,---,0.04,VWS V14.01,2013-02-06 08:13:00,
2013-02-06 00:19:00,42.8,38.3,29.74,NNE,29,0.0,0.0,84,0.04,,---,0.04,VWS V14.01,2013-02-06 08:19:00,
2013-02-06 00:26:00,42.8,38.3,29.74,NNE,29,0.0,0.0,84,0.04,,---,0.04,VWS V14.01,2013-02-06 08:26:00,
2013-02-06 00:31:00,42.8,38.3,29.74,NNE,29,0.0,0.0,84,0.04,,---,0.04,VWS V14.01,2013-02-06 08:31:00,
2013-02-06 00:37:00,42.8,38.3,29.74,NNE,29,0.0,0.0,84,0.04,,---,0.04,VWS V14.01,2013-02-06 08:37:00,
2013-02-06 00:43:00,42.6,38.1,29.74,NNE,30,0.0,0.0,84,0.04,,---,0.04,VWS V14.01,2013-02-06 08:43:00,
2013-02-06 00:50:00,42.6,38.1,29.74,NNE,29,0.0,0.0,84,0.04,,---,0.04,VWS V14.01,2013-02-06 08:50:00,
2013-02-06 00:55:00,42.6,38.4,29.74,NNE,30,0.0,0.0,85,0.04,,---,0.04,VWS V14.01,2013-02-06 08:55:00,
2013-02-06 01:01:00,42.6,38.4,29.74,NNE,30,0.0,0.0,85,0.04,,---,0.04,VWS V14.01,2013-02-06 09:01:00,
2013-02-06 01:08:00,42.6,38.4,29.74,NNE,29,0.0,0.0,85,0.00,,---,0.04,VWS V14.01,2013-02-06 09:08:00,
2013-02-06 01:13:00,42.6,38.4,29.74,NNE,30,0.0,0.0,85,0.00,,---,0.04,VWS V14.01,2013-02-06 09:13:00,
2013-02-06 01:19:00,42.4,38.3,29.74,NNE,30,0.0,0.0,85,0.00,,---,0.04,VWS V14.01,2013-02-06 09:19:00,
2013-02-06 01:25:00,42.4,38.3,29.74,NNE,30,0.0,0.0,85,0.00,,---,0.04,VWS V14.01,2013-02-06 09:25:00,
2013-02-06 01:31:00,42.4,38.3,29.74,NNE,30,0.0,0.0,85,0.00,,---,0.04,VWS V14.01,2013-02-06 09:31:00,
2013-02-06 01:37:00,42.4,38.3,29.74,NNE,29,0.0,0.0,85,0.00,,---,0.04,VWS V14.01,2013-02-06 09:37:00,
2013-02-06 01:43:00,42.4,38.3,29.74,NNE,29,0.0,0.0,85,0.00,,---,0.04,VWS V14.01,2013-02-06 09:43:00,
2013-02-06 01:49:00,42.6,38.4,29.74,NNE,29,0.0,0.0,85,0.00,,---,0.04,VWS V14.01,2013-02-06 09:49:00,
2013-02-06 01:55:00,42.6,38.4,29.74,NNE,29,0.0,0.0,85,0.00,,---,0.04,VWS V14.01,2013-02-06 09:55:00,
2013-02-06 02:01:00,42.4,38.3,29.74,NNE,29,0.0,0.0,85,0.00,,---,0.04,VWS V14.01,2013-02-06 10:01:00,
2013-02-06 02:08:00,42.4,38.3,29.74,NNE,29,0.0,0.0,85,0.00,,---,0.04,VWS V14.01,2013-02-06 10:08:00,
2013-02-06 02:14:00,42.4,38.3,29.74,NNE,29,0.0,0.0,85,0.00,,---,0.04,VWS V14.01,2013-02-06 10:14:00,
2013-02-06 02:19:00,42.4,38.6,29.74,NNE,29,0.0,0.0,86,0.00,,---,0.04,VWS V14.01,2013-02-06 10:19:00,
2013-02-06 02:25:00,42.4,38.6,29.74,NNE,29,0.0,0.0,86,0.00,,---,0.04,VWS V14.01,2013-02-06 10:25:00,
2013-02-06 02:32:00,42.6,38.7,29.74,NNE,29,0.0,0.0,86,0.00,,---,0.04,VWS V14.01,2013-02-06 10:32:00,
2013-02-06 02:37:00,42.4,38.6,29.74,NNE,29,0.0,0.0,86,0.00,,---,0.04,VWS V14.01,2013-02-06 10:37:00,
2013-02-06 02:43:00,42.4,38.6,29.74,NNE,29,0.0,0.0,86,0.00,,---,0.04,VWS V14.01,2013-02-06 10:43:00,
2013-02-06 02:49:00,42.4,38.6,29.74,NNE,29,0.0,0.0,86,0.00,,---,0.04,VWS V14.01,2013-02-06 10:49:00,
2013-02-06 02:56:00,42.4,38.6,29.74,NNE,29,0.0,0.0,86,0.00,,---,0.04,VWS V14.01,2013-02-06 10:56:00,
2013-02-06 03:01:00,42.4,38.6,29.74,NNE,29,0.0,0.0,86,0.00,,---,0.04,VWS V14.01,2013-02-06 11:01:00,
2013-02-06 03:07:00,42.4,38.6,29.74,NNE,29,0.0,3.1,86,0.00,,---,0.04,VWS V14.01,2013-02-06 11:07:00,
2013-02-06 03:13:00,42.6,38.7,29.74,NNE,30,0.0,0.0,86,0.00,,---,0.04,VWS V14.01,2013-02-06 11:13:00,
2013-02-06 03:19:00,42.4,38.6,29.74,NNE,30,0.0,0.0,86,0.00,,---,0.04,VWS V14.01,2013-02-06 11:19:00,
2013-02-06 03:25:00,42.4,38.6,29.74,NNE,30,0.0,0.0,86,0.00,,---,0.04,VWS V14.01,2013-02-06 11:25:00,
2013-02-06 03:31:00,42.4,38.6,29.74,NNE,29,0.0,0.0,86,0.00,,---,0.04,VWS V14.01,2013-02-06 11:31:00,
2013-02-06 03:37:00,42.4,38.6,29.74,NNE,29,0.0,0.0,86,0.00,,---,0.04,VWS V14.01,2013-02-06 11:37:00,
2013-02-06 03:43:00,42.4,38.6,29.74,NNE,29,0.0,0.0,86,0.00,,---,0.04,VWS V14.01,2013-02-06 11:43:00,
2013-02-06 03:49:00,42.4,38.6,29.74,NNE,29,0.0,0.0,86,0.00,,---,0.04,VWS V14.01,2013-02-06 11:49:00,
2013-02-06 03:55:00,42.4,38.6,29.77,NNE,30,0.0,0.0,86,0.00,,---,0.04,VWS V14.01,2013-02-06 11:55:00,
2013-02-06 04:01:00,42.4,38.6,29.77,NNE,30,0.0,0.0,86,0.00,,---,0.04,VWS V14.01,2013-02-06 12:01:00,
2013-02-06 04:07:00,42.4,38.6,29.77,NNE,30,0.0,0.0,86,0.00,,---,0.04,VWS V14.01,2013-02-06 12:07:00,
2013-02-06 04:13:00,42.4,38.6,29.77,NNE,30,0.0,0.0,86,0.00,,---,0.04,VWS V14.01,2013-02-06 12:13:00,
2013-02-06 04:19:00,42.4,38.6,29.77,NNE,30,0.0,0.0,86,0.00,,---,0.04,VWS V14.01,2013-02-06 12:19:00,
2013-02-06 04:25:00,42.4,38.6,29.77,NNE,30,0.0,0.0,86,0.00,,---,0.04,VWS V14.01,2013-02-06 12:25:00,
2013-02-06 04:31:00,42.4,38.6,29.77,NNE,30,0.0,0.0,86,0.00,,---,0.04,VWS V14.01,2013-02-06 12:31:00,
2013-02-06 04:37:00,42.4,38.6,29.77,NNE,30,0.0,0.0,86,0.00,,---,0.04,VWS V14.01,2013-02-06 12:37:00,
2013-02-06 04:43:00,42.4,38.6,29.77,NNE,30,0.0,0.0,86,0.00,,---,0.04,VWS V14.01,2013-02-06 12:43:00,
2013-02-06 04:49:00,42.4,38.6,29.77,NNE,30,0.0,0.0,86,0.00,,---,0.04,VWS V14.01,2013-02-06 12:49:00,
2013-02-06 04:55:00,42.4,38.6,29.80,NNE,30,0.0,0.0,86,0.00,,---,0.04,VWS V14.01,2013-02-06 12:55:00,
2013-02-06 05:01:00,42.4,38.6,29.80,NNE,30,0.0,0.0,86,0.00,,---,0.04,VWS V14.01,2013-02-06 13:01:00,
2013-02-06 05:07:00,42.4,38.6,29.80,NNE,30,0.0,0.0,86,0.00,,---,0.04,VWS V14.01,2013-02-06 13:07:00,
2013-02-06 05:13:00,42.4,38.6,29.80,NNE,30,0.0,0.0,86,0.00,,---,0.04,VWS V14.01,2013-02-06 13:13:00,
2013-02-06 05:19:00,42.4,38.6,29.80,NNE,30,0.0,0.0,86,0.00,,---,0.04,VWS V14.01,2013-02-06 13:19:00,
2013-02-06 05:25:00,42.4,38.6,29.80,NNE,30,0.0,0.0,86,0.00,,---,0.04,VWS V14.01,2013-02-06 13:25:00,
2013-02-06 05:31:00,42.4,38.6,29.80,NNE,30,0.0,0.0,86,0.00,,---,0.04,VWS V14.01,2013-02-06 13:31:00,
2013-02-06 05:37:00,42.3,38.4,29.80,NNE,30,0.0,0.0,86,0.00,,---,0.04,VWS V14.01,2013-02-06 13:37:00,
2013-02-06 05:43:00,42.3,38.4,29.80,NNE,30,0.0,0.0,86,0.04,,---,0.08,VWS V14.01,2013-02-06 13:43:00,
2013-02-06 05:49:00,42.3,38.4,29.80,NNE,30,0.0,0.0,86,0.04,,---,0.08,VWS V14.01,2013-02-06 13:49:00,
2013-02-06 05:55:00,42.4,38.6,29.80,NNE,30,0.0,0.0,86,0.04,,---,0.08,VWS V14.01,2013-02-06 13:55:00,
2013-02-06 06:01:00,42.3,38.4,29.80,NNE,30,0.0,0.0,86,0.04,,---,0.08,VWS V14.01,2013-02-06 14:01:00,
2013-02-06 06:07:00,42.4,38.6,29.80,NNE,30,0.0,0.0,86,0.04,,---,0.08,VWS V14.01,2013-02-06 14:07:00,
2013-02-06 06:13:00,42.4,38.6,29.80,NNE,30,0.0,0.0,86,0.04,,---,0.08,VWS V14.01,2013-02-06 14:13:00,
2013-02-06 06:19:00,42.3,38.4,29.80,NNE,30,0.0,0.0,86,0.04,,---,0.08,VWS V14.01,2013-02-06 14:19:00,
2013-02-06 06:25:00,42.4,38.6,29.80,NNE,30,0.0,0.0,86,0.04,,---,0.08,VWS V14.01,2013-02-06 14:25:00,
2013-02-06 06:31:00,42.4,38.6,29.80,NNE,30,0.0,0.0,86,0.04,,---,0.08,VWS V14.01,2013-02-06 14:31:00,
2013-02-06 06:37:00,42.3,38.4,29.80,NNE,30,0.0,0.0,86,0.04,,---,0.08,VWS V14.01,2013-02-06 14:37:00,
2013-02-06 06:44:00,42.3,38.4,29.80,NNE,30,0.0,0.0,86,0.00,,---,0.08,VWS V14.01,2013-02-06 14:44:00,
2013-02-06 06:49:00,42.3,38.4,29.80,NNE,30,0.0,0.0,86,0.04,,---,0.12,VWS V14.01,2013-02-06 14:49:00,
2013-02-06 06:55:00,42.3,38.4,29.80,NNE,30,0.0,0.0,86,0.04,,---,0.12,VWS V14.01,2013-02-06 14:55:00,
2013-02-06 07:01:00,42.3,38.4,29.80,NNE,30,0.0,0.0,86,0.04,,---,0.12,VWS V14.01,2013-02-06 15:01:00,
2013-02-06 07:07:00,42.3,38.4,29.83,NNE,30,0.0,0.0,86,0.04,,---,0.12,VWS V14.01,2013-02-06 15:07:00,
2013-02-06 07:13:00,42.1,38.2,29.83,ESE,106,0.0,0.0,86,0.08,,---,0.16,VWS V14.01,2013-02-06 15:13:00,
2013-02-06 07:19:00,42.3,38.4,29.83,ESE,106,0.0,0.0,86,0.08,,---,0.16,VWS V14.01,2013-02-06 15:19:00,
2013-02-06 07:26:00,42.3,38.4,29.83,ESE,106,0.0,0.0,86,0.08,,---,0.16,VWS V14.01,2013-02-06 15:26:00,
2013-02-06 07:31:00,42.3,38.4,29.83,ESE,106,0.0,0.0,86,0.08,,---,0.16,VWS V14.01,2013-02-06 15:31:00,
2013-02-06 07:37:00,42.1,38.2,29.80,ESE,106,0.0,0.0,86,0.08,,---,0.16,VWS V14.01,2013-02-06 15:37:00,
2013-02-06 07:43:00,42.1,38.2,29.80,ESE,105,0.0,0.0,86,0.08,,---,0.16,VWS V14.01,2013-02-06 15:43:00,
2013-02-06 07:50:00,41.7,37.8,29.80,ESE,105,0.0,0.0,86,0.08,,---,0.16,VWS V14.01,2013-02-06 15:50:00,
2013-02-06 07:55:00,41.7,37.5,29.80,ESE,105,0.0,0.0,85,0.04,,---,0.16,VWS V14.01,2013-02-06 15:55:00,
2013-02-06 08:01:00,41.7,37.5,29.80,ESE,105,0.0,0.0,85,0.04,,---,0.16,VWS V14.01,2013-02-06 16:01:00,
2013-02-06 08:07:00,41.9,37.7,29.80,ESE,105,0.0,0.0,85,0.04,,---,0.16,VWS V14.01,2013-02-06 16:07:00,
2013-02-06 08:13:00,42.1,37.9,29.80,ESE,105,0.0,0.0,85,0.04,,---,0.16,VWS V14.01,2013-02-06 16:13:00,
2013-02-06 08:19:00,42.1,37.9,29.80,ESE,105,0.0,0.0,85,0.00,,---,0.16,VWS V14.01,2013-02-06 16:19:00,
2013-02-06 08:25:00,42.3,38.1,29.80,ESE,105,0.0,0.0,85,0.00,,---,0.16,VWS V14.01,2013-02-06 16:25:00,
2013-02-06 08:31:00,42.4,38.6,29.80,ESE,106,0.0,0.0,86,0.00,,---,0.16,VWS V14.01,2013-02-06 16:31:00,
2013-02-06 08:37:00,42.4,38.6,29.80,ESE,105,0.0,0.0,86,0.00,,---,0.16,VWS V14.01,2013-02-06 16:37:00,
2013-02-06 08:43:00,42.6,38.4,29.80,ESE,106,0.0,0.0,85,0.00,,---,0.16,VWS V14.01,2013-02-06 16:43:00,
2013-02-06 08:49:00,42.8,38.6,29.80,ESE,106,0.0,0.0,85,0.00,,---,0.16,VWS V14.01,2013-02-06 16:49:00,
2013-02-06 08:55:00,42.8,38.6,29.80,ESE,105,0.0,0.0,85,0.00,,---,0.16,VWS V14.01,2013-02-06 16:55:00,
2013-02-06 09:01:00,43.0,38.8,29.80,ESE,105,0.0,0.0,85,0.00,,---,0.16,VWS V14.01,2013-02-06 17:01:00,
2013-02-06 09:07:00,43.3,39.1,29.80,ESE,105,0.0,0.0,85,0.00,,---,0.16,VWS V14.01,2013-02-06 17:07:00,
2013-02-06 09:13:00,43.3,39.1,29.80,ESE,106,0.0,0.0,85,0.00,,---,0.16,VWS V14.01,2013-02-06 17:13:00,
2013-02-06 09:19:00,43.5,39.3,29.80,ESE,106,0.0,0.0,85,0.00,,---,0.16,VWS V14.01,2013-02-06 17:19:00,
2013-02-06 09:25:00,43.7,39.5,29.80,ESE,106,0.0,0.0,85,0.00,,---,0.16,VWS V14.01,2013-02-06 17:25:00,
2013-02-06 09:32:00,44.1,39.8,29.80,ESE,106,0.0,0.0,85,0.00,,---,0.16,VWS V14.01,2013-02-06 17:32:00,
2013-02-06 09:37:00,44.2,40.0,29.80,ESE,106,0.0,0.0,85,0.00,,---,0.16,VWS V14.01,2013-02-06 17:37:00,
2013-02-06 09:43:00,44.4,40.2,29.80,ESE,105,0.0,0.0,85,0.00,,---,0.16,VWS V14.01,2013-02-06 17:43:00,
2013-02-06 09:49:00,44.8,40.5,29.80,ESE,105,0.0,0.0,85,0.00,,---,0.16,VWS V14.01,2013-02-06 17:49:00,
2013-02-06 09:56:00,44.8,40.5,29.80,ESE,106,0.0,0.0,85,0.00,,---,0.16,VWS V14.01,2013-02-06 17:56:00,
2013-02-06 10:01:00,45.0,40.4,29.80,ESE,106,0.0,0.0,84,0.00,,---,0.16,VWS V14.01,2013-02-06 18:01:00,
2013-02-06 10:07:00,45.3,40.8,29.80,ESE,106,0.0,0.0,84,0.00,,---,0.16,VWS V14.01,2013-02-06 18:07:00,
2013-02-06 10:13:00,45.5,41.0,29.80,ESE,106,0.0,0.0,84,0.00,,---,0.16,VWS V14.01,2013-02-06 18:13:00,
2013-02-06 10:19:00,45.9,41.3,29.80,ESE,106,0.0,0.0,84,0.00,,---,0.16,VWS V14.01,2013-02-06 18:19:00,
2013-02-06 10:25:00,45.9,41.0,29.80,ESE,106,0.0,0.0,83,0.00,,---,0.16,VWS V14.01,2013-02-06 18:25:00,
2013-02-06 10:31:00,46.2,41.3,29.80,ESE,106,0.0,0.0,83,0.00,,---,0.16,VWS V14.01,2013-02-06 18:31:00,
2013-02-06 10:37:00,46.4,41.2,29.80,ESE,106,0.0,0.0,82,0.00,,---,0.16,VWS V14.01,2013-02-06 18:37:00,
2013-02-06 10:43:00,46.8,41.2,29.80,ESE,106,0.0,0.0,81,0.00,,---,0.16,VWS V14.01,2013-02-06 18:43:00,
2013-02-06 10:49:00,47.1,41.3,29.80,ESE,105,0.0,0.0,80,0.00,,---,0.16,VWS V14.01,2013-02-06 18:49:00,
2013-02-06 10:55:00,47.1,39.6,29.80,ESE,105,0.0,0.0,75,0.00,,---,0.16,VWS V14.01,2013-02-06 18:55:00,
2013-02-06 11:01:00,46.6,37.0,29.80,ESE,102,0.0,0.0,69,0.00,,---,0.16,VWS V14.01,2013-02-06 19:01:00,
2013-02-06 11:07:00,47.3,33.3,29.80,ESE,102,0.0,0.0,58,0.00,,---,0.16,VWS V14.01,2013-02-06 19:07:00,
2013-02-06 11:13:00,47.5,34.7,29.80,ESE,102,0.0,0.0,61,0.00,,---,0.16,VWS V14.01,2013-02-06 19:13:00,
2013-02-06 11:19:00,47.3,35.4,29.80,ESE,102,0.0,0.0,63,0.00,,---,0.16,VWS V14.01,2013-02-06 19:19:00,
2013-02-06 11:25:00,47.3,36.2,29.80,ESE,102,0.0,0.0,65,0.00,,---,0.16,VWS V14.01,2013-02-06 19:25:00,
2013-02-06 11:31:00,47.8,37.4,29.80,ESE,102,0.0,0.0,67,0.00,,---,0.16,VWS V14.01,2013-02-06 19:31:00,
2013-02-06 11:37:00,48.2,37.8,29.80,ESE,102,0.0,0.0,67,0.00,,---,0.16,VWS V14.01,2013-02-06 19:37:00,
2013-02-06 11:43:00,48.6,37.0,29.80,ESE,102,0.0,0.0,64,0.00,,---,0.16,VWS V14.01,2013-02-06 19:43:00,
2013-02-06 11:49:00,48.7,37.1,29.80,ESE,102,0.0,0.0,64,0.00,,---,0.16,VWS V14.01,2013-02-06 19:49:00,
2013-02-06 11:55:00,48.7,36.7,29.77,ESE,102,0.0,0.0,63,0.00,,---,0.16,VWS V14.01,2013-02-06 19:55:00,
2013-02-06 12:01:00,49.1,36.2,29.77,ESE,102,0.0,0.0,61,0.00,,---,0.16,VWS V14.01,2013-02-06 20:01:00,
2013-02-06 12:07:00,49.1,37.1,29.77,ESE,102,0.0,0.0,63,0.00,,---,0.16,VWS V14.01,2013-02-06 20:07:00,
2013-02-06 12:13:00,49.5,37.8,29.77,ESE,102,0.0,0.0,64,0.00,,---,0.16,VWS V14.01,2013-02-06 20:13:00,
2013-02-06 12:19:00,49.6,38.4,29.77,ESE,102,0.0,0.0,65,0.00,,---,0.16,VWS V14.01,2013-02-06 20:19:00,
2013-02-06 12:25:00,50.0,38.7,29.77,East,96,0.0,0.0,65,0.00,,---,0.16,VWS V14.01,2013-02-06 20:25:00,
2013-02-06 12:31:00,50.0,37.1,29.77,East,96,0.0,0.0,61,0.00,,---,0.16,VWS V14.01,2013-02-06 20:31:00,
2013-02-06 12:37:00,49.5,28.5,29.74,WSW,248,2.7,3.1,44,0.00,,---,0.16,VWS V14.01,2013-02-06 20:37:00,
2013-02-06 12:43:00,50.2,33.7,29.74,SW,218,0.0,0.0,53,0.00,,---,0.16,VWS V14.01,2013-02-06 20:43:00,
2013-02-06 12:49:00,50.2,30.8,29.74,NNW,342,0.0,0.0,47,0.00,,---,0.16,VWS V14.01,2013-02-06 20:49:00,
2013-02-06 12:55:00,50.4,32.4,29.74,ENE,71,0.0,0.0,50,0.00,,---,0.16,VWS V14.01,2013-02-06 20:55:00,
2013-02-06 13:02:00,50.2,31.8,29.74,ENE,71,0.0,0.0,49,0.00,,---,0.16,VWS V14.01,2013-02-06 21:02:00,
2013-02-06 13:07:00,50.0,34.5,29.74,ENE,71,0.0,0.0,55,0.00,,---,0.16,VWS V14.01,2013-02-06 21:07:00,
2013-02-06 13:13:00,49.8,30.9,29.74,SSE,158,0.0,0.0,48,0.00,,---,0.16,VWS V14.01,2013-02-06 21:13:00,
2013-02-06 13:19:00,49.6,32.3,29.74,SSE,164,0.0,0.0,51,0.00,,---,0.16,VWS V14.01,2013-02-06 21:19:00,
2013-02-06 13:25:00,49.5,34.4,29.74,SSE,164,0.0,0.0,56,0.00,,---,0.16,VWS V14.01,2013-02-06 21:25:00,
2013-02-06 13:31:00,49.5,35.3,29.74,SSE,163,0.0,0.0,58,0.00,,---,0.16,VWS V14.01,2013-02-06 21:31:00,
2013-02-06 13:37:00,49.5,35.3,29.74,SSE,163,0.0,0.0,58,0.00,,---,0.16,VWS V14.01,2013-02-06 21:37:00,
2013-02-06 13:44:00,49.3,35.6,29.74,SSE,163,0.0,0.0,59,0.00,,---,0.16,VWS V14.01,2013-02-06 21:44:00,
2013-02-06 13:49:00,48.9,33.0,29.74,SSE,163,0.0,0.0,54,0.00,,---,0.16,VWS V14.01,2013-02-06 21:49:00,
2013-02-06 13:55:00,49.1,33.7,29.74,SSE,163,0.0,0.0,55,0.00,,---,0.16,VWS V14.01,2013-02-06 21:55:00,
2013-02-06 14:01:00,49.1,35.0,29.74,SSE,163,0.0,0.0,58,0.00,,---,0.16,VWS V14.01,2013-02-06 22:01:00,
2013-02-06 14:07:00,48.9,35.2,29.74,SSE,163,0.0,0.0,59,0.00,,---,0.16,VWS V14.01,2013-02-06 22:07:00,
2013-02-06 14:13:00,48.9,35.7,29.74,SSE,163,0.0,0.0,60,0.00,,---,0.16,VWS V14.01,2013-02-06 22:13:00,
2013-02-06 14:19:00,48.9,36.1,29.74,SSE,163,0.0,0.0,61,0.00,,---,0.16,VWS V14.01,2013-02-06 22:19:00,
2013-02-06 14:25:00,48.7,35.9,29.71,SSE,163,0.0,0.0,61,0.00,,---,0.16,VWS V14.01,2013-02-06 22:25:00,
2013-02-06 14:31:00,48.7,35.9,29.71,SSE,163,0.0,0.0,61,0.00,,---,0.16,VWS V14.01,2013-02-06 22:31:00,
2013-02-06 14:37:00,48.7,35.5,29.71,SSE,163,0.0,0.0,60,0.00,,---,0.16,VWS V14.01,2013-02-06 22:37:00,
2013-02-06 14:43:00,48.9,36.1,29.71,SSE,163,0.0,0.0,61,0.00,,---,0.16,VWS V14.01,2013-02-06 22:43:00,
2013-02-06 14:50:00,48.7,34.2,29.71,SSE,163,0.0,0.0,57,0.00,,---,0.16,VWS V14.01,2013-02-06 22:50:00,
2013-02-06 14:55:00,48.7,35.1,29.71,SSE,163,0.0,0.0,59,0.00,,---,0.16,VWS V14.01,2013-02-06 22:55:00,
2013-02-06 15:01:00,48.6,34.9,29.71,SSE,163,0.0,0.0,59,0.00,,---,0.16,VWS V14.01,2013-02-06 23:01:00,
2013-02-06 15:07:00,48.4,35.2,29.71,SSE,163,0.0,0.0,60,0.00,,---,0.16,VWS V14.01,2013-02-06 23:07:00,
2013-02-06 15:13:00,48.0,35.6,29.71,SSE,163,0.0,0.0,62,0.00,,---,0.16,VWS V14.01,2013-02-06 23:13:00,
2013-02-06 15:19:00,48.0,36.0,29.71,SSE,163,0.0,0.0,63,0.00,,---,0.16,VWS V14.01,2013-02-06 23:19:00,
2013-02-06 15:25:00,47.8,36.3,29.71,SSE,163,0.0,0.0,64,0.00,,---,0.16,VWS V14.01,2013-02-06 23:25:00,
2013-02-06 15:31:00,47.7,36.1,29.71,South,169,0.0,0.0,64,0.00,,---,0.16,VWS V14.01,2013-02-06 23:31:00,
2013-02-06 15:37:00,47.3,33.7,29.74,South,169,0.0,0.0,59,0.00,,---,0.16,VWS V14.01,2013-02-06 23:37:00,
2013-02-06 15:43:00,46.9,33.4,29.74,South,169,0.0,0.0,59,0.00,,---,0.16,VWS V14.01,2013-02-06 23:43:00,
2013-02-06 15:50:00,46.6,33.9,29.74,ESE,105,0.0,0.0,61,0.00,,---,0.16,VWS V14.01,2013-02-06 23:50:00,
2013-02-06 15:55:00,46.2,34.7,29.71,ESE,105,0.0,0.0,64,0.00,,---,0.16,VWS V14.01,2013-02-06 23:55:00,
2013-02-06 16:01:00,46.2,35.5,29.71,ESE,105,0.0,0.0,66,0.00,,---,0.16,VWS V14.01,2013-02-07 00:01:00,
2013-02-06 16:07:00,46.0,35.7,29.71,East,96,0.0,0.0,67,0.00,,---,0.16,VWS V14.01,2013-02-07 00:07:00,
2013-02-06 16:13:00,45.7,35.7,29.71,East,96,0.0,0.0,68,0.00,,---,0.16,VWS V14.01,2013-02-07 00:13:00,
2013-02-06 16:19:00,45.7,36.1,29.71,East,96,0.0,0.0,69,0.00,,---,0.16,VWS V14.01,2013-02-07 00:19:00,
2013-02-06 16:25:00,45.5,35.9,29.71,East,96,0.0,0.0,69,0.00,,---,0.16,VWS V14.01,2013-02-07 00:25:00,
2013-02-06 16:32:00,45.3,36.1,29.71,East,96,0.0,0.0,70,0.00,,---,0.16,VWS V14.01,2013-02-07 00:32:00,
2013-02-06 16:37:00,45.3,36.5,29.71,East,96,0.0,0.0,71,0.00,,---,0.16,VWS V14.01,2013-02-07 00:37:00,
2013-02-06 16:43:00,45.1,36.7,29.71,East,96,0.0,0.0,72,0.00,,---,0.16,VWS V14.01,2013-02-07 00:43:00,
2013-02-06 16:49:00,45.0,36.5,29.71,North,3,0.0,0.0,72,0.04,,---,0.20,VWS V14.01,2013-02-07 00:49:00,
2013-02-06 16:56:00,45.0,36.8,29.71,North,3,0.0,0.0,73,0.04,,---,0.20,VWS V14.01,2013-02-07 00:56:00,
2013-02-06 17:01:00,44.6,36.5,29.71,SW,236,0.0,0.0,73,0.04,,---,0.20,VWS V14.01,2013-02-07 01:01:00,
2013-02-06 17:07:00,44.6,36.5,29.71,WSW,238,0.0,0.0,73,0.04,,---,0.20,VWS V14.01,2013-02-07 01:07:00,
2013-02-06 17:13:00,44.2,36.5,29.71,WSW,239,0.0,0.0,74,0.04,,---,0.20,VWS V14.01,2013-02-07 01:13:00,
2013-02-06 17:19:00,44.2,36.5,29.71,WSW,237,0.0,0.0,74,0.04,,---,0.20,VWS V14.01,2013-02-07 01:19:00,
2013-02-06 17:25:00,44.1,36.3,29.68,WSW,237,0.0,0.0,74,0.04,,---,0.20,VWS V14.01,2013-02-07 01:25:00,
2013-02-06 17:31:00,44.1,36.3,29.68,WSW,237,0.0,0.0,74,0.04,,---,0.20,VWS V14.01,2013-02-07 01:31:00,
2013-02-06 17:37:00,44.1,36.3,29.68,WSW,237,0.0,0.0,74,0.04,,---,0.20,VWS V14.01,2013-02-07 01:37:00,
2013-02-06 17:43:00,43.9,36.5,29.68,WSW,248,0.0,0.0,75,0.04,,---,0.20,VWS V14.01,2013-02-07 01:43:00,
2013-02-06 17:49:00,43.7,36.3,29.68,WSW,248,0.0,0.0,75,0.00,,---,0.20,VWS V14.01,2013-02-07 01:49:00,
2013-02-06 17:55:00,43.7,36.6,29.65,WSW,244,0.0,0.0,76,0.00,,---,0.20,VWS V14.01,2013-02-07 01:55:00,
2013-02-06 18:02:00,43.5,36.5,29.65,WSW,244,0.0,0.0,76,0.00,,---,0.20,VWS V14.01,2013-02-07 02:02:00,
2013-02-06 18:07:00,43.5,36.1,29.65,WSW,252,0.0,0.0,75,0.00,,---,0.20,VWS V14.01,2013-02-07 02:07:00,
2013-02-06 18:13:00,43.5,36.5,29.65,WSW,253,0.0,0.0,76,0.00,,---,0.20,VWS V14.01,2013-02-07 02:13:00,
2013-02-06 18:19:00,43.5,36.5,29.65,WSW,247,0.0,0.0,76,0.00,,---,0.20,VWS V14.01,2013-02-07 02:19:00,
2013-02-06 18:25:00,43.5,36.5,29.65,WSW,247,0.0,0.0,76,0.00,,---,0.20,VWS V14.01,2013-02-07 02:25:00,
2013-02-06 18:31:00,43.3,36.3,29.65,WSW,245,0.0,0.0,76,0.00,,---,0.20,VWS V14.01,2013-02-07 02:31:00,
2013-02-06 18:37:00,43.3,36.3,29.65,WSW,245,0.0,0.0,76,0.00,,---,0.20,VWS V14.01,2013-02-07 02:37:00,
2013-02-06 18:43:00,43.2,36.1,29.65,WSW,244,0.0,0.0,76,0.00,,---,0.20,VWS V14.01,2013-02-07 02:43:00,
2013-02-06 18:49:00,43.2,36.1,29.65,WSW,244,0.0,0.0,76,0.00,,---,0.20,VWS V14.01,2013-02-07 02:49:00,
2013-02-06 18:55:00,43.2,36.1,29.65,WSW,244,0.0,0.0,76,0.00,,---,0.20,VWS V14.01,2013-02-07 02:55:00,
2013-02-06 19:01:00,43.0,36.0,29.65,WSW,243,0.0,0.0,76,0.00,,---,0.20,VWS V14.01,2013-02-07 03:01:00,
2013-02-06 19:07:00,43.0,36.0,29.65,WSW,243,0.0,0.0,76,0.00,,---,0.20,VWS V14.01,2013-02-07 03:07:00,
2013-02-06 19:13:00,43.0,36.3,29.65,WSW,243,0.0,0.0,77,0.00,,---,0.20,VWS V14.01,2013-02-07 03:13:00,
2013-02-06 19:19:00,42.8,36.1,29.65,WSW,243,0.0,0.0,77,0.00,,---,0.20,VWS V14.01,2013-02-07 03:19:00,
2013-02-06 19:25:00,42.8,36.1,29.62,WSW,243,0.0,0.0,77,0.00,,---,0.20,VWS V14.01,2013-02-07 03:25:00,
2013-02-06 19:31:00,42.8,36.1,29.62,WSW,243,0.0,0.0,77,0.00,,---,0.20,VWS V14.01,2013-02-07 03:31:00,
2013-02-06 19:37:00,42.6,36.2,29.62,WSW,242,0.0,0.0,78,0.00,,---,0.20,VWS V14.01,2013-02-07 03:37:00,
2013-02-06 19:43:00,42.4,36.1,29.62,WSW,242,0.0,0.0,78,0.00,,---,0.20,VWS V14.01,2013-02-07 03:43:00,
2013-02-06 19:49:00,42.4,36.1,29.62,WSW,242,0.0,0.0,78,0.00,,---,0.20,VWS V14.01,2013-02-07 03:49:00,
2013-02-06 19:55:00,42.3,35.9,29.62,WSW,242,0.0,0.0,78,0.00,,---,0.20,VWS V14.01,2013-02-07 03:55:00,
2013-02-06 20:01:00,42.3,35.9,29.62,WSW,242,0.0,0.0,78,0.00,,---,0.20,VWS V14.01,2013-02-07 04:01:00,
2013-02-06 20:07:00,42.1,35.7,29.59,WSW,242,0.0,0.0,78,0.00,,---,0.20,VWS V14.01,2013-02-07 04:07:00,
2013-02-06 20:13:00,42.1,35.7,29.59,WSW,241,0.0,0.0,78,0.00,,---,0.20,VWS V14.01,2013-02-07 04:13:00,
2013-02-06 20:19:00,42.1,35.7,29.59,WSW,241,0.0,0.0,78,0.00,,---,0.20,VWS V14.01,2013-02-07 04:19:00,
2013-02-06 20:26:00,41.9,35.9,29.59,WSW,241,0.0,0.0,79,0.00,,---,0.20,VWS V14.01,2013-02-07 04:26:00,
2013-02-06 20:31:00,41.9,35.9,29.59,WSW,241,0.0,0.0,79,0.00,,---,0.20,VWS V14.01,2013-02-07 04:31:00,
2013-02-06 20:37:00,41.7,35.7,29.59,WSW,241,0.0,0.0,79,0.00,,---,0.20,VWS V14.01,2013-02-07 04:37:00,
2013-02-06 20:43:00,41.7,35.7,29.59,WSW,241,0.0,0.0,79,0.00,,---,0.20,VWS V14.01,2013-02-07 04:43:00,
2013-02-06 20:49:00,41.7,35.7,29.59,WSW,241,0.0,0.0,79,0.00,,---,0.20,VWS V14.01,2013-02-07 04:49:00,
2013-02-06 20:55:00,41.7,35.7,29.59,WSW,242,0.0,0.0,79,0.00,,---,0.20,VWS V14.01,2013-02-07 04:55:00,
2013-02-06 21:01:00,41.7,36.0,29.59,WSW,241,0.0,0.0,80,0.00,,---,0.20,VWS V14.01,2013-02-07 05:01:00,
2013-02-06 21:03:00,41.7,36.0,29.59,WSW,241,0.0,0.0,80,0.00,,---,0.20,VWS V14.01,2013-02-07 05:03:00,
2013-02-06 21:09:00,41.7,36.0,29.59,WSW,241,0.0,0.0,80,0.00,,---,0.20,VWS V14.01,2013-02-07 05:09:00,
2013-02-06 21:11:00,41.7,36.0,29.59,WSW,241,0.0,0.0,80,0.00,,---,0.20,VWS V14.01,2013-02-07 05:11:00,
2013-02-06 21:17:00,41.5,35.8,29.59,WSW,241,0.0,0.0,80,0.00,,---,0.20,VWS V14.01,2013-02-07 05:17:00,
2013-02-06 21:21:00,41.5,35.8,29.59,WSW,241,0.0,0.0,80,0.00,,---,0.20,VWS V14.01,2013-02-07 05:21:00,
2013-02-06 21:27:00,41.5,35.8,29.59,WSW,241,0.0,0.0,80,0.00,,---,0.20,VWS V14.01,2013-02-07 05:27:00,
2013-02-06 21:33:00,41.4,36.0,29.59,WSW,241,0.0,0.0,81,0.00,,---,0.20,VWS V14.01,2013-02-07 05:33:00,
2013-02-06 21:39:00,41.4,36.0,29.56,WSW,241,0.0,0.0,81,0.00,,---,0.20,VWS V14.01,2013-02-07 05:39:00,
2013-02-06 21:45:00,41.4,36.0,29.56,WSW,241,0.0,0.0,81,0.00,,---,0.20,VWS V14.01,2013-02-07 05:45:00,
2013-02-06 21:51:00,41.4,36.0,29.56,WSW,241,0.0,0.0,81,0.00,,---,0.20,VWS V14.01,2013-02-07 05:51:00,
2013-02-06 21:57:00,41.2,36.1,29.56,WSW,241,0.0,0.0,82,0.00,,---,0.20,VWS V14.01,2013-02-07 05:57:00,
2013-02-06 22:03:00,41.4,36.3,29.56,WSW,241,0.0,0.0,82,0.00,,---,0.20,VWS V14.01,2013-02-07 06:03:00,
2013-02-06 22:09:00,41.4,36.3,29.56,WSW,241,0.0,0.0,82,0.00,,---,0.20,VWS V14.01,2013-02-07 06:09:00,
2013-02-06 22:15:00,41.4,36.3,29.56,WSW,240,0.0,0.0,82,0.00,,---,0.20,VWS V14.01,2013-02-07 06:15:00,
2013-02-06 22:21:00,41.4,36.6,29.56,WSW,240,0.0,0.0,83,0.00,,---,0.20,VWS V14.01,2013-02-07 06:21:00,
2013-02-06 22:28:00,41.4,36.6,29.56,WSW,240,0.0,0.0,83,0.00,,---,0.20,VWS V14.01,2013-02-07 06:28:00,
2013-02-06 22:33:00,41.4,36.6,29.56,WSW,240,0.0,0.0,83,0.00,,---,0.20,VWS V14.01,2013-02-07 06:33:00,
2013-02-06 22:39:00,41.4,36.6,29.56,WSW,240,0.0,0.0,83,0.00,,---,0.20,VWS V14.01,2013-02-07 06:39:00,
2013-02-06 22:46:00,41.4,36.6,29.56,WSW,253,0.0,0.0,83,0.00,,---,0.20,VWS V14.01,2013-02-07 06:46:00,
2013-02-06 22:51:00,41.4,36.6,29.56,WSW,252,0.0,0.0,83,0.00,,---,0.20,VWS V14.01,2013-02-07 06:51:00,
2013-02-06 22:58:00,41.5,37.1,29.56,WSW,251,0.0,0.0,84,0.00,,---,0.20,VWS V14.01,2013-02-07 06:58:00,
2013-02-06 23:03:00,41.4,36.9,29.56,WSW,251,0.0,0.0,84,0.00,,---,0.20,VWS V14.01,2013-02-07 07:03:00,
2013-02-06 23:09:00,41.5,37.1,29.56,WSW,251,0.0,0.0,84,0.00,,---,0.20,VWS V14.01,2013-02-07 07:09:00,
2013-02-06 23:15:00,41.5,37.1,29.56,WSW,251,0.0,0.0,84,0.00,,---,0.20,VWS V14.01,2013-02-07 07:15:00,
2013-02-06 23:21:00,41.5,37.1,29.56,SSW,209,0.0,3.6,84,0.00,,---,0.20,VWS V14.01,2013-02-07 07:21:00,
2013-02-06 23:27:00,41.5,37.1,29.56,SSW,202,0.0,0.0,84,0.00,,---,0.20,VWS V14.01,2013-02-07 07:27:00,
2013-02-06 23:33:00,41.5,37.1,29.56,North,3,0.0,0.0,84,0.00,,---,0.20,VWS V14.01,2013-02-07 07:33:00,
2013-02-06 23:39:00,41.7,37.5,29.56,North,3,0.0,0.0,85,0.00,,---,0.20,VWS V14.01,2013-02-07 07:39:00,
2013-02-06 23:45:00,41.9,37.7,29.56,North,3,0.0,0.0,85,0.00,,---,0.20,VWS V14.01,2013-02-07 07:45:00,
2013-02-06 23:52:00,41.9,38.0,29.56,North,4,0.0,0.0,86,0.00,,---,0.20,VWS V14.01,2013-02-07 07:52:00,
2013-02-06 23:57:00,42.1,38.2,29.56,North,4,0.0,0.0,86,0.00,,---,0.20,VWS V14.01,2013-02-07 07:57:00,